Hovedside
METAR-TAF:

METAR-TAF

Lufthavner :

Medan, Sumatera Utara, Indonesia

breddegrad: 03-34N, lengdegrad: 098-41E, høyde over havet: 25 m

Gjeldene værobservasjon

Denne rapporten ble laget for 2 timer og 16 minutter siden, klokken 00:00 UTC
Vind 7 kt fra Øst
Temperatur 24°C
Luftfuktighet 94%
Trykk 1007 hPa
Sikt: 8000 m
Spredte skyer i en høyde av 1700 ft

METAR: WIMM 220000Z 10007KT 8000 SCT017 24/23 Q1007 NOSIG

Tid: 09:16 (02:16 UTC)

Varsel

Denne rapporten ble laget for 3 timer og 16 minutter siden, klokken 23:00 UTC
Varsel gyldig fra 22. klokken 00 UTC til 23. klokken 00 UTC
Vind 3 kt fra skiftende retning
Sikt: 4000 m
Spredte skyer i en høyde av 1700 ft
dis
Blir
fra 22. klokken 01 UTC til 22. klokken 03 UTC
Vind 8 kt fra Nordøst
Sikt: 8000 m
Blir
fra 22. klokken 12 UTC til 22. klokken 14 UTC
Vind 3 kt fra skiftende retning
Sikt: 4000 m
dis,

TAF: WIMM 212300Z 2200/2300 VRB03KT 4000 HZ SCT017 BECMG 2201/2203 04008KT 8000 NSW BECMG 2212/2214 VRB03KT 4000 HZ

Værobservasjoner og værvarsel for over 4000 flyplasser (METAR- og TAF-rapporter).

Tilgjengelige stasjoner er representert av de røde og gule prikkene på kartet.

Hold musepekeren over prikken for å se navnet på stasjonen.

Klikk så for å se værobservasjoner og -varsler.

For å forandre kartet kan du klikke på den grønne knappen med svart kryss for å zoome inn, på den grønne knappen med strek for å zoome ut, eller på de grønne pilene for å se tilstøtende kart.


METAR-TAF: